Time;durP1;ratioP1;P1;durP2;ratioP2;P2;SDS_P1;SDS_P2;PMS_P1;PMS_P2;Temp;Humidity;BMP_temperature;BMP_pressure;BME280_temperature;BME280_humidity;BME280_pressure;Samples;Min_cycle;Max_cycle;Signal;HPM_P1;HPM_P2
2022/03/14 00:03:50;;;;;;;65.50;26.70;;;0.40;79.40;;;;;;10251226;29;20093;-83
2022/03/14 00:08:55;;;;;;;64.60;26.17;;;0.40;81.60;;;;;;10251375;28;20039;-84
2022/03/14 00:13:56;;;;;;;58.43;25.07;;;0.30;80.80;;;;;;10250491;28;20480;-85
2022/03/14 00:18:58;;;;;;;56.13;23.40;;;0.20;81.00;;;;;;10249202;29;20388;-83
2022/03/14 00:23:58;;;;;;;54.70;24.57;;;0.20;80.90;;;;;;10250679;28;20049;-83
2022/03/14 00:28:59;;;;;;;60.37;25.07;;;0.10;83.00;;;;;;10250575;28;20496;-83
2022/03/14 00:34:00;;;;;;;55.53;24.03;;;0.10;82.50;;;;;;10250504;29;20084;-83
2022/03/14 00:39:00;;;;;;;57.87;25.40;;;0.00;82.50;;;;;;10249803;29;20150;-84
2022/03/14 00:44:02;;;;;;;64.27;27.60;;;0.00;84.30;;;;;;10242456;29;20046;-83
2022/03/14 00:49:03;;;;;;;64.10;27.50;;;0.00;84.20;;;;;;10249315;28;20062;-83
2022/03/14 00:54:04;;;;;;;64.03;26.60;;;-0.10;85.90;;;;;;10248843;28;20122;-83
2022/03/14 00:59:05;;;;;;;60.47;25.77;;;-0.10;87.80;;;;;;10246724;29;20447;-83
2022/03/14 01:04:06;;;;;;;64.80;28.10;;;0.00;86.30;;;;;;10240888;29;20042;-84
2022/03/14 01:09:07;;;;;;;56.03;24.37;;;-0.10;86.70;;;;;;10238704;29;20090;-84
2022/03/14 01:14:08;;;;;;;58.87;27.37;;;-0.10;86.10;;;;;;10248217;28;20051;-84
2022/03/14 01:19:12;;;;;;;61.50;25.83;;;-0.20;86.60;;;;;;10247776;29;20031;-83
2022/03/14 01:24:12;;;;;;;59.20;28.67;;;-0.20;86.90;;;;;;10246440;29;20049;-83
2022/03/14 01:29:17;;;;;;;73.90;29.83;;;-0.30;90.40;;;;;;10240895;29;20571;-84
2022/03/14 01:34:18;;;;;;;67.87;30.13;;;-0.30;90.40;;;;;;10248087;28;20050;-84
2022/03/14 01:39:18;;;;;;;70.57;30.83;;;-0.40;91.40;;;;;;10246827;29;20047;-83
2022/03/14 01:44:19;;;;;;;70.97;31.70;;;-0.40;92.50;;;;;;10247277;29;20046;-84
2022/03/14 01:49:21;;;;;;;63.47;29.00;;;-0.30;94.50;;;;;;10247103;28;20058;-84
2022/03/14 01:54:21;;;;;;;62.37;28.83;;;-0.20;94.00;;;;;;10237816;29;20074;-84
2022/03/14 01:59:22;;;;;;;68.13;29.70;;;-0.30;93.90;;;;;;10246831;29;20059;-83
2022/03/14 02:04:23;;;;;;;69.73;28.03;;;-0.30;93.90;;;;;;10245372;28;20035;-83
2022/03/14 02:09:24;;;;;;;66.03;27.43;;;-0.50;92.90;;;;;;10247394;28;20038;-84
2022/03/14 02:14:25;;;;;;;59.37;26.57;;;-0.70;93.20;;;;;;10245679;28;20058;-85
2022/03/14 02:19:26;;;;;;;59.00;26.87;;;-0.70;93.60;;;;;;10240702;29;20043;-84
2022/03/14 02:24:28;;;;;;;63.20;28.57;;;-0.90;93.50;;;;;;10245506;29;20043;-84
2022/03/14 02:29:29;;;;;;;58.87;26.43;;;-0.90;94.20;;;;;;10246394;28;20384;-84
2022/03/14 02:34:30;;;;;;;61.50;28.10;;;-1.00;95.20;;;;;;10246186;29;20041;-84
2022/03/14 02:39:34;;;;;;;61.27;28.27;;;-1.00;95.40;;;;;;10245691;29;20403;-84
2022/03/14 02:44:41;;;;;;;72.23;28.43;;;-1.10;95.80;;;;;;10242543;29;20054;-84
2022/03/14 02:49:42;;;;;;;71.90;30.47;;;-1.10;96.80;;;;;;10238306;28;20041;-84
2022/03/14 02:54:43;;;;;;;66.80;30.20;;;-1.10;98.50;;;;;;10246682;29;20118;-84
2022/03/14 02:59:44;;;;;;;69.03;29.90;;;-1.20;99.20;;;;;;10240139;29;20039;-84
2022/03/14 03:04:44;;;;;;;65.20;29.50;;;-1.30;99.90;;;;;;10238112;28;20047;-84
2022/03/14 03:09:46;;;;;;;62.77;30.33;;;-1.30;99.90;;;;;;10244970;29;20038;-84
2022/03/14 03:14:47;;;;;;;61.30;29.60;;;-1.30;99.90;;;;;;10245906;28;20598;-84
2022/03/14 03:19:47;;;;;;;60.37;27.53;;;-1.30;98.90;;;;;;10253151;28;20090;-84
2022/03/14 03:24:48;;;;;;;65.80;29.53;;;-1.30;98.00;;;;;;10252446;29;20059;-83
2022/03/14 03:29:49;;;;;;;67.07;28.67;;;-1.30;97.90;;;;;;10252813;28;20043;-84
2022/03/14 03:34:50;;;;;;;79.40;35.90;;;-1.40;98.10;;;;;;10248181;29;20047;-84
2022/03/14 03:39:50;;;;;;;73.90;34.07;;;-1.50;99.90;;;;;;10252044;28;20038;-84
2022/03/14 03:44:52;;;;;;;74.00;33.93;;;-1.50;99.90;;;;;;10252499;29;20387;-84
2022/03/14 03:49:52;;;;;;;66.80;30.87;;;-1.50;99.90;;;;;;10244778;29;20054;-84
2022/03/14 03:54:53;;;;;;;71.23;30.80;;;-1.60;99.90;;;;;;10251859;29;20479;-86
2022/03/14 03:59:54;;;;;;;68.53;30.90;;;-1.60;99.90;;;;;;10252772;29;20064;-84
2022/03/14 04:04:55;;;;;;;65.47;30.20;;;-1.60;99.90;;;;;;10243849;29;20471;-85
2022/03/14 04:09:57;;;;;;;65.80;30.30;;;-1.60;99.90;;;;;;10250753;28;20019;-84
2022/03/14 04:15:07;;;;;;;69.57;31.57;;;-1.80;99.90;;;;;;10249008;28;20451;-87
2022/03/14 04:20:13;;;;;;;65.47;30.20;;;-1.90;99.90;;;;;;10246806;29;20063;-86
2022/03/14 04:25:15;;;;;;;78.38;34.10;;;-2.00;99.90;;;;;;10233545;28;20035;-86
2022/03/14 04:30:16;;;;;;;74.07;30.93;;;-2.10;99.90;;;;;;10250394;28;20035;-85
2022/03/14 04:35:17;;;;;;;77.33;33.33;;;-2.20;99.90;;;;;;10250010;28;20134;-86
2022/03/14 04:40:17;;;;;;;78.63;34.63;;;-2.10;99.90;;;;;;10242443;29;20135;-86
2022/03/14 04:45:18;;;;;;;80.37;34.13;;;-2.20;99.90;;;;;;10248147;29;20039;-86
2022/03/14 04:50:19;;;;;;;70.27;33.20;;;-2.20;99.90;;;;;;10248785;28;20047;-85
2022/03/14 04:55:20;;;;;;;69.57;29.97;;;-2.20;99.90;;;;;;10249778;28;20043;-86
2022/03/14 05:00:22;;;;;;;71.20;31.30;;;-2.10;99.90;;;;;;10245806;28;20551;-83
2022/03/14 05:05:23;;;;;;;77.73;34.00;;;-2.10;99.90;;;;;;10248417;28;20476;-85
2022/03/14 05:10:24;;;;;;;76.90;34.47;;;-2.20;99.90;;;;;;10248562;28;20031;-84
2022/03/14 05:15:25;;;;;;;79.73;35.37;;;-2.10;99.90;;;;;;10246176;29;20051;-84
2022/03/14 05:20:26;;;;;;;69.37;32.00;;;-2.10;99.90;;;;;;10248573;29;20038;-83
2022/03/14 05:25:27;;;;;;;76.73;35.73;;;-2.10;99.90;;;;;;10239223;29;20110;-84
2022/03/14 05:30:28;;;;;;;77.23;35.30;;;-2.00;99.90;;;;;;10234378;28;20035;-84
2022/03/14 05:35:29;;;;;;;74.60;34.00;;;-2.00;99.90;;;;;;10248200;29;20507;-83
2022/03/14 05:40:30;;;;;;;78.63;36.00;;;-2.00;99.90;;;;;;10247186;28;20032;-83
2022/03/14 05:45:31;;;;;;;75.17;34.53;;;-2.00;99.90;;;;;;10248111;28;20403;-83
2022/03/14 05:50:32;;;;;;;159.20;71.23;;;-2.00;99.90;;;;;;10248254;28;20030;-84
2022/03/14 05:55:32;;;;;;;146.77;64.00;;;-2.00;99.90;;;;;;10246389;29;20094;-83
2022/03/14 06:00:33;;;;;;;123.70;59.00;;;-1.90;99.90;;;;;;10239775;29;20035;-83
2022/03/14 06:05:34;;;;;;;106.57;48.67;;;-1.80;99.90;;;;;;10236067;29;20094;-83
2022/03/14 06:10:35;;;;;;;96.50;44.03;;;-1.70;99.90;;;;;;10237074;29;20118;-83
2022/03/14 06:15:36;;;;;;;98.73;45.20;;;-1.60;99.90;;;;;;10236611;29;20062;-86
2022/03/14 06:20:37;;;;;;;103.83;48.60;;;-1.40;99.90;;;;;;10237609;28;20035;-85
2022/03/14 06:25:37;;;;;;;109.07;50.60;;;-1.30;99.90;;;;;;10239171;28;20058;-84
2022/03/14 06:30:38;;;;;;;112.53;50.50;;;-1.10;99.90;;;;;;10242822;29;20067;-84
2022/03/14 06:35:40;;;;;;;80.43;38.57;;;-0.90;99.90;;;;;;10242908;29;20050;-84
2022/03/14 06:40:41;;;;;;;92.17;44.43;;;-0.70;99.90;;;;;;10240094;29;20114;-85
2022/03/14 07:04:10;;;;;;;147.63;68.73;;;0.40;99.90;;;;;;11516877;23;20127;-84
2022/03/14 07:09:10;;;;;;;88.20;45.23;;;0.60;99.90;;;;;;10252489;29;20468;-84
2022/03/14 07:37:59;;;;;;;73.88;33.03;;;2.60;94.10;;;;;;10246546;29;20051;-85
2022/03/14 08:07:14;;;;;;;55.73;26.43;;;4.80;85.70;;;;;;10251552;28;20050;-86
2022/03/14 08:12:16;;;;;;;66.40;30.53;;;5.30;79.10;;;;;;10251431;28;20035;-86
2022/03/14 08:17:18;;;;;;;112.00;42.83;;;5.90;80.00;;;;;;10245717;29;20030;-85
2022/03/14 08:33:34;;;;;;;158.30;49.53;;;7.30;72.90;;;;;;11749809;23;20067;-86
2022/03/14 08:50:31;;;;;;;148.05;47.72;;;8.70;63.20;;;;;;10247829;29;20027;-85
2022/03/14 09:01:34;;;;;;;80.83;32.13;;;9.40;62.40;;;;;;11197069;23;20150;-85
2022/03/14 09:06:35;;;;;;;70.10;28.70;;;9.70;60.10;;;;;;10240011;29;20027;-84
2022/03/14 09:11:37;;;;;;;35.67;18.67;;;9.90;60.10;;;;;;10245033;28;20046;-85
2022/03/14 09:16:38;;;;;;;35.60;19.67;;;10.30;56.70;;;;;;10236893;29;20049;-86
2022/03/14 09:21:39;;;;;;;29.63;16.20;;;10.60;57.70;;;;;;10240363;29;20023;-86
2022/03/14 09:26:40;;;;;;;39.67;20.40;;;10.80;56.40;;;;;;10248516;29;20019;-87
2022/03/14 09:31:41;;;;;;;33.45;17.73;;;11.10;56.60;;;;;;10241546;29;20144;-86
2022/03/14 09:36:42;;;;;;;27.65;16.42;;;11.40;54.90;;;;;;10222908;29;20043;-86
2022/03/14 09:41:43;;;;;;;35.55;20.90;;;11.70;55.00;;;;;;10230370;29;20078;-86
2022/03/14 09:46:48;;;;;;;28.85;15.82;;;11.90;51.90;;;;;;10243498;29;20082;-85
2022/03/14 09:51:50;;;;;;;27.88;16.92;;;12.10;50.60;;;;;;10241928;29;20027;-86
2022/03/14 09:56:50;;;;;;;22.83;12.73;;;12.20;52.70;;;;;;10270869;28;20121;-84
2022/03/14 10:57:25;;;;;;;37.50;18.45;;;13.60;47.10;;;;;;10228878;29;20074;-87
2022/03/14 11:02:27;;;;;;;81.55;72.57;;;13.70;48.00;;;;;;10246632;29;20028;-86
2022/03/14 11:07:31;;;;;;;27.88;15.55;;;13.70;47.30;;;;;;10231236;29;20122;-87
2022/03/14 11:12:32;;;;;;;25.00;14.85;;;13.80;46.90;;;;;;10213813;29;20034;-86
2022/03/14 11:18:16;;;;;;;21.77;11.68;;;14.00;47.10;;;;;;10211155;29;20468;-87
2022/03/14 11:23:18;;;;;;;21.23;11.65;;;14.00;46.50;;;;;;10206944;29;20020;-85
2022/03/14 11:29:11;;;;;;;36.83;24.38;;;14.10;46.70;;;;;;10238220;29;20039;-86
2022/03/14 11:34:12;;;;;;;47.72;24.83;;;14.20;46.60;;;;;;10246112;28;20431;-86
2022/03/14 11:39:13;;;;;;;49.85;26.52;;;14.40;47.40;;;;;;10252852;28;20074;-86
2022/03/14 11:44:15;;;;;;;44.47;23.08;;;14.50;46.70;;;;;;10252022;28;20055;-86
2022/03/14 11:49:20;;;;;;;17.90;8.90;;;14.70;46.40;;;;;;10234594;29;20491;-87
2022/03/14 11:54:20;;;;;;;32.92;16.52;;;14.50;45.10;;;;;;10246639;29;20039;-86
2022/03/14 11:59:29;;;;;;;46.72;21.90;;;14.40;45.60;;;;;;10243875;29;20392;-86
2022/03/14 12:04:31;;;;;;;23.00;13.35;;;14.50;46.60;;;;;;10243267;29;20034;-87
2022/03/14 12:09:33;;;;;;;21.33;12.63;;;14.60;46.70;;;;;;10236319;29;20456;-86
2022/03/14 12:15:14;;;;;;;26.10;18.58;;;14.40;45.40;;;;;;10231584;28;20387;-87
2022/03/14 12:20:19;;;;;;;18.55;10.25;;;14.50;46.30;;;;;;10227691;28;20059;-85
2022/03/14 12:25:42;;;;;;;18.83;11.40;;;14.70;45.50;;;;;;10229673;29;20451;-86
2022/03/14 12:30:48;;;;;;;15.65;10.13;;;14.70;44.50;;;;;;10234911;29;20281;-87
2022/03/14 12:35:49;;;;;;;25.95;11.07;;;14.80;44.80;;;;;;10224776;29;20099;-86
2022/03/14 12:40:56;;;;;;;21.48;10.00;;;14.90;44.60;;;;;;10240683;29;20051;-87
2022/03/14 12:46:02;;;;;;;151.40;110.65;;;15.00;45.00;;;;;;10244245;28;20070;-87
2022/03/14 12:51:40;;;;;;;32.13;15.32;;;15.00;44.80;;;;;;10211303;29;20027;-88
2022/03/14 12:56:43;;;;;;;114.03;39.05;;;14.90;44.20;;;;;;10210792;29;20040;-87
2022/03/14 13:01:47;;;;;;;58.55;22.35;;;14.90;44.20;;;;;;10222885;29;20023;-88
2022/03/14 13:06:51;;;;;;;20.45;9.57;;;15.00;43.50;;;;;;10222699;28;20047;-87
2022/03/14 13:11:57;;;;;;;51.25;20.55;;;15.00;43.80;;;;;;10229541;29;20019;-86
2022/03/14 13:16:59;;;;;;;53.30;25.65;;;15.00;44.00;;;;;;10224001;29;20650;-87
2022/03/14 13:22:11;;;;;;;36.22;16.27;;;15.10;44.60;;;;;;10229692;29;20367;-88
2022/03/14 13:27:19;;;;;;;29.73;12.30;;;15.20;43.30;;;;;;10231262;29;20023;-87
2022/03/14 13:32:20;;;;;;;22.98;11.25;;;15.10;41.70;;;;;;10248944;29;20031;-87
2022/03/14 13:37:21;;;;;;;18.13;7.25;;;15.00;42.10;;;;;;10248773;29;20508;-86
2022/03/14 13:42:23;;;;;;;18.60;9.52;;;14.90;41.20;;;;;;10231151;29;20059;-86
2022/03/14 13:47:23;;;;;;;26.25;11.18;;;14.70;41.60;;;;;;10237699;29;20114;-87
2022/03/14 13:52:28;;;;;;;25.38;10.27;;;14.70;41.60;;;;;;10212349;29;20106;-87
2022/03/14 13:57:29;;;;;;;22.83;10.15;;;14.60;41.30;;;;;;10210200;29;20039;-86
2022/03/14 14:02:34;;;;;;;17.30;8.93;;;14.60;42.40;;;;;;10223507;29;20031;-87
2022/03/14 14:07:35;;;;;;;10.93;6.25;;;14.50;41.60;;;;;;10224283;29;20031;-86
2022/03/14 14:12:35;;;;;;;25.80;9.82;;;14.50;41.90;;;;;;10244604;29;20464;-86
2022/03/14 14:17:37;;;;;;;15.88;8.40;;;14.50;41.90;;;;;;10237675;29;20040;-87
2022/03/14 14:22:42;;;;;;;10.07;5.75;;;14.40;41.90;;;;;;10225832;29;20028;-86
2022/03/14 14:27:55;;;;;;;18.23;9.60;;;14.40;42.50;;;;;;10218731;29;20114;-88
2022/03/14 14:32:58;;;;;;;18.95;8.50;;;14.40;42.20;;;;;;10190538;29;20064;-86
2022/03/14 14:37:59;;;;;;;19.88;8.57;;;14.30;41.60;;;;;;10228419;29;20032;-88
2022/03/14 14:42:59;;;;;;;15.18;8.05;;;14.10;41.70;;;;;;10230093;29;20059;-86
2022/03/14 14:48:01;;;;;;;11.57;6.38;;;13.90;41.60;;;;;;10245459;29;20062;-89
2022/03/14 14:53:02;;;;;;;11.60;5.80;;;13.80;41.50;;;;;;10221271;29;20122;-87
2022/03/14 14:58:03;;;;;;;19.95;10.57;;;13.70;42.00;;;;;;10206140;29;20083;-86
2022/03/14 15:03:05;;;;;;;13.35;6.97;;;13.60;41.40;;;;;;10238652;29;20039;-87
2022/03/14 15:08:06;;;;;;;13.77;9.02;;;13.50;41.80;;;;;;10244697;29;20591;-86
2022/03/14 15:13:07;;;;;;;24.00;18.10;;;13.40;41.40;;;;;;10247444;28;20082;-88
2022/03/14 15:18:08;;;;;;;72.53;30.40;;;13.30;42.40;;;;;;10213969;29;20481;-86
2022/03/14 15:23:09;;;;;;;41.97;18.95;;;13.20;42.00;;;;;;10214237;29;20098;-86
2022/03/14 15:28:10;;;;;;;111.22;58.00;;;13.10;42.20;;;;;;10219637;29;20042;-87
2022/03/14 15:33:13;;;;;;;45.70;21.48;;;12.90;42.20;;;;;;10253525;29;20035;-87
2022/03/14 15:38:13;;;;;;;34.05;17.23;;;12.90;42.20;;;;;;10252562;29;20039;-86
2022/03/14 15:43:14;;;;;;;43.70;19.45;;;12.80;42.90;;;;;;10234052;29;20111;-84
2022/03/14 15:48:16;;;;;;;25.63;13.30;;;12.60;42.70;;;;;;10243193;28;20038;-86
2022/03/14 15:53:17;;;;;;;78.55;35.00;;;12.50;43.10;;;;;;10244746;29;20058;-87
2022/03/14 15:58:18;;;;;;;101.80;58.55;;;12.40;43.10;;;;;;10246593;29;20042;-86
2022/03/14 16:03:19;;;;;;;50.13;24.80;;;12.20;43.20;;;;;;10215286;29;20046;-86
2022/03/14 16:08:22;;;;;;;104.45;69.13;;;12.00;43.90;;;;;;10249946;28;20019;-87
2022/03/14 16:13:23;;;;;;;58.33;42.28;;;11.90;43.50;;;;;;10204510;29;20034;-86
2022/03/14 16:18:26;;;;;;;70.85;39.33;;;11.70;43.90;;;;;;10225543;29;20041;-86
2022/03/14 16:23:26;;;;;;;78.35;35.38;;;11.50;44.40;;;;;;10221376;28;20028;-87
2022/03/14 16:41:08;;;;;;;21.38;10.27;;;10.60;45.40;;;;;;10196562;29;20036;-88
2022/03/14 16:58:28;;;;;;;;;;;8.80;46.70;;;;;;10212457;29;20562;-83
2022/03/14 17:03:29;;;;;;;71.77;32.90;;;8.40;47.40;;;;;;10243011;28;20278;-82
2022/03/14 17:08:30;;;;;;;73.97;34.43;;;8.10;47.20;;;;;;10244728;29;20035;-83
2022/03/14 17:13:31;;;;;;;58.27;27.17;;;7.80;47.60;;;;;;10244548;29;20035;-85
2022/03/14 17:18:31;;;;;;;83.87;41.43;;;7.70;48.20;;;;;;10216894;29;20039;-86
2022/03/14 17:23:32;;;;;;;95.07;44.80;;;7.60;48.30;;;;;;10239795;29;20469;-85
2022/03/14 17:28:34;;;;;;;146.30;72.63;;;7.60;48.50;;;;;;10236139;29;20122;-85
2022/03/14 17:33:34;;;;;;;187.17;96.97;;;7.40;49.00;;;;;;10235234;28;20587;-84
2022/03/14 17:38:35;;;;;;;284.37;136.00;;;7.20;49.40;;;;;;10231012;29;20122;-86
2022/03/14 17:43:46;;;;;;;270.63;120.30;;;7.00;49.30;;;;;;10241628;29;20162;-87
2022/03/14 17:48:46;;;;;;;243.70;109.70;;;6.90;49.30;;;;;;10223712;29;20104;-84
2022/03/14 17:53:47;;;;;;;256.20;111.90;;;6.70;49.50;;;;;;10231170;28;20031;-85
2022/03/14 17:59:00;;;;;;;211.30;94.97;;;6.60;49.70;;;;;;10229771;29;20890;-86
2022/03/14 18:04:00;;;;;;;204.53;95.90;;;6.50;50.00;;;;;;10217783;29;20395;-84
2022/03/14 18:09:02;;;;;;;208.33;91.07;;;6.40;50.10;;;;;;10224364;29;20043;-87
2022/03/14 18:14:03;;;;;;;230.40;101.13;;;6.40;49.90;;;;;;10200345;29;20609;-85
2022/03/14 18:19:05;;;;;;;279.80;101.03;;;6.30;50.10;;;;;;10235695;29;20094;-85
2022/03/14 18:24:06;;;;;;;324.50;111.23;;;6.10;50.80;;;;;;10221854;29;20082;-85
2022/03/14 18:29:07;;;;;;;252.50;90.87;;;6.00;51.30;;;;;;10205154;29;20035;-84
2022/03/14 18:34:15;;;;;;;286.90;102.47;;;5.90;51.70;;;;;;10197097;29;20046;-84
2022/03/14 18:39:16;;;;;;;305.40;107.70;;;5.80;52.20;;;;;;10211095;29;20035;-84
2022/03/14 18:44:18;;;;;;;135.97;53.43;;;5.70;52.50;;;;;;10228368;29;20026;-84
2022/03/14 18:49:22;;;;;;;118.43;51.87;;;5.80;52.40;;;;;;10241570;29;20027;-86
2022/03/14 18:54:23;;;;;;;155.57;67.67;;;6.20;52.20;;;;;;10237278;29;21139;-83
2022/03/14 18:59:24;;;;;;;162.17;70.40;;;6.40;52.00;;;;;;10229693;29;20023;-86
2022/03/14 19:04:25;;;;;;;94.80;40.30;;;6.50;52.50;;;;;;10252658;29;20031;-85
2022/03/14 19:09:26;;;;;;;112.50;43.50;;;6.60;52.20;;;;;;10235794;29;20027;-84
2022/03/14 19:14:28;;;;;;;94.83;40.33;;;6.70;52.10;;;;;;10224773;29;20106;-85
2022/03/14 19:19:30;;;;;;;148.83;54.30;;;6.60;52.50;;;;;;10233325;29;20063;-84
2022/03/14 19:24:32;;;;;;;343.80;117.63;;;6.30;52.00;;;;;;10252454;29;20019;-82
2022/03/14 19:29:33;;;;;;;155.40;59.37;;;6.10;52.70;;;;;;10222721;29;20035;-82
2022/03/14 19:34:35;;;;;;;88.57;40.17;;;6.10;52.80;;;;;;10208922;29;20427;-83
2022/03/14 19:40:09;;;;;;;93.40;44.17;;;6.00;53.10;;;;;;10238462;29;20035;-84
2022/03/14 19:45:09;;;;;;;120.83;55.33;;;5.90;53.10;;;;;;10216659;29;20020;-84
2022/03/14 19:50:10;;;;;;;143.43;64.97;;;5.90;53.20;;;;;;10223981;29;20044;-83
2022/03/14 19:55:12;;;;;;;162.07;71.07;;;5.70;53.40;;;;;;10225684;29;20040;-83
2022/03/14 20:00:13;;;;;;;206.80;80.23;;;5.60;53.10;;;;;;10243390;29;20039;-83
2022/03/14 20:05:15;;;;;;;208.83;82.97;;;5.40;53.20;;;;;;10244297;29;20089;-83
2022/03/14 20:10:15;;;;;;;203.87;82.67;;;5.30;54.50;;;;;;10245598;29;20103;-84
2022/03/14 20:15:18;;;;;;;172.23;72.20;;;5.20;55.00;;;;;;10222903;29;20044;-84
2022/03/14 20:20:19;;;;;;;185.90;72.97;;;5.00;55.10;;;;;;10226087;29;20024;-84
2022/03/14 20:25:21;;;;;;;183.43;69.47;;;5.00;55.60;;;;;;10233498;29;20023;-83
2022/03/14 20:30:22;;;;;;;235.00;85.50;;;5.00;56.10;;;;;;10213018;29;20400;-82
2022/03/14 20:35:23;;;;;;;170.33;66.53;;;5.00;56.30;;;;;;10247212;28;20385;-85
2022/03/14 20:40:24;;;;;;;115.67;50.67;;;5.20;57.20;;;;;;10245549;29;20035;-82
2022/03/14 20:45:24;;;;;;;108.07;45.17;;;5.40;56.80;;;;;;10217650;29;20050;-83
2022/03/14 20:50:25;;;;;;;101.13;45.03;;;5.60;56.50;;;;;;10220113;29;20035;-83
2022/03/14 20:55:26;;;;;;;97.17;44.57;;;5.90;56.60;;;;;;10212939;29;20073;-83
2022/03/14 21:00:26;;;;;;;166.30;67.37;;;6.00;56.20;;;;;;10207775;29;20050;-83
2022/03/14 21:05:27;;;;;;;242.03;88.03;;;6.10;55.80;;;;;;10221245;29;20024;-84
2022/03/14 21:10:29;;;;;;;111.60;49.47;;;6.20;55.70;;;;;;10240329;28;20063;-83
2022/03/14 21:15:29;;;;;;;88.77;40.33;;;6.20;55.20;;;;;;10249857;28;20048;-84
2022/03/14 21:20:32;;;;;;;101.77;43.07;;;6.20;55.40;;;;;;10247509;29;20064;-84
2022/03/14 21:25:32;;;;;;;183.27;69.60;;;5.90;55.80;;;;;;10248914;29;20114;-83
2022/03/14 21:30:36;;;;;;;146.87;61.97;;;5.70;56.00;;;;;;10244932;28;20031;-83
2022/03/14 21:35:37;;;;;;;137.70;59.57;;;5.50;55.90;;;;;;10239487;28;20500;-84
2022/03/14 21:40:39;;;;;;;137.13;60.67;;;5.30;56.40;;;;;;10233559;28;20062;-82
2022/03/14 21:45:40;;;;;;;106.93;47.33;;;5.20;56.20;;;;;;10239459;28;20027;-83
2022/03/14 21:50:41;;;;;;;148.33;69.87;;;5.00;56.70;;;;;;10246746;29;20396;-83
2022/03/14 21:55:41;;;;;;;167.90;77.77;;;4.80;56.90;;;;;;10218827;29;20042;-84
2022/03/14 22:00:44;;;;;;;259.33;100.63;;;4.60;57.00;;;;;;10248543;28;20037;-83
2022/03/14 22:05:46;;;;;;;325.70;128.30;;;4.50;57.10;;;;;;10260030;28;20114;-84
2022/03/14 22:10:47;;;;;;;259.73;110.10;;;4.30;57.20;;;;;;10270964;28;20113;-84
2022/03/14 22:15:48;;;;;;;238.43;101.97;;;4.20;57.70;;;;;;10258958;28;20039;-84
2022/03/14 22:20:50;;;;;;;223.30;91.00;;;4.10;58.30;;;;;;10246258;28;20510;-83
2022/03/14 22:25:50;;;;;;;224.67;94.70;;;3.90;58.30;;;;;;10228611;29;20023;-85
2022/03/14 22:30:51;;;;;;;197.57;84.87;;;3.80;58.80;;;;;;10225302;29;20032;-82
2022/03/14 22:35:52;;;;;;;197.30;81.07;;;3.80;59.10;;;;;;10236998;29;20055;-83
2022/03/14 22:40:54;;;;;;;171.93;76.53;;;3.70;59.20;;;;;;10246563;29;20027;-82
2022/03/14 22:45:54;;;;;;;131.43;57.67;;;3.60;59.40;;;;;;10222494;29;20028;-82
2022/03/14 22:50:56;;;;;;;104.20;45.13;;;3.60;60.40;;;;;;10246880;29;20035;-83
2022/03/14 22:56:00;;;;;;;78.63;36.70;;;3.90;60.70;;;;;;10239412;29;20126;-84
2022/03/14 23:01:01;;;;;;;81.10;36.27;;;4.20;60.60;;;;;;10240204;29;20368;-82
2022/03/14 23:06:02;;;;;;;81.90;36.97;;;4.40;59.90;;;;;;10234680;29;20067;-85
2022/03/14 23:16:36;;;;;;;84.70;42.83;;;4.60;59.30;;;;;;10245566;29;20078;-84
2022/03/14 23:21:42;;;;;;;94.13;43.47;;;4.70;59.00;;;;;;10246026;29;20693;-83
2022/03/14 23:26:44;;;;;;;;;;;4.40;59.10;;;;;;10242669;29;20070;-84
2022/03/14 23:31:50;;;;;;;102.40;40.87;;;4.10;59.90;;;;;;10246663;28;19911;-84
2022/03/14 23:36:51;;;;;;;105.38;41.15;;;4.00;59.40;;;;;;10250609;29;20590;-84
2022/03/14 23:41:52;;;;;;;107.47;46.87;;;3.90;59.70;;;;;;10247650;29;20110;-85
2022/03/14 23:46:53;;;;;;;121.87;48.70;;;3.80;59.80;;;;;;10252265;29;20539;-82
2022/03/14 23:51:54;;;;;;;89.23;37.70;;;3.60;60.00;;;;;;10244232;29;20099;-83
2022/03/14 23:56:58;;;;;;;84.77;38.90;;;3.50;60.60;;;;;;10251520;29;20050;-82
